Time;durP1;ratioP1;P1;durP2;ratioP2;P2;SDS_P1;SDS_P2;PMS_P1;PMS_P2;Temp;Humidity;BMP_temperature;BMP_pressure;BME280_temperature;BME280_humidity;BME280_pressure;Samples;Min_cycle;Max_cycle;Signal;HPM_P1;HPM_P2
2021/11/15 00:01:43;;;;;;;3.97;3.00;;;10.00;99.90;;;;;;4971448;28;20206;-75
2021/11/15 00:04:11;;;;;;;6.47;4.00;;;9.90;99.90;;;;;;4970498;28;20240;-76
2021/11/15 00:06:38;;;;;;;7.57;4.73;;;9.90;99.90;;;;;;4971029;28;20292;-75
2021/11/15 00:09:05;;;;;;;10.23;5.27;;;10.00;99.90;;;;;;4971691;28;20213;-75
2021/11/15 00:11:32;;;;;;;11.37;6.90;;;9.90;99.90;;;;;;4959150;28;20569;-76
2021/11/15 00:13:59;;;;;;;5.70;3.57;;;10.00;99.90;;;;;;4974594;28;20596;-76
2021/11/15 00:16:26;;;;;;;4.87;3.47;;;10.00;99.90;;;;;;4974106;28;20688;-78
2021/11/15 00:18:55;;;;;;;8.43;5.40;;;10.00;99.90;;;;;;4974435;28;20740;-76
2021/11/15 00:21:22;;;;;;;6.17;4.03;;;10.00;99.90;;;;;;4973531;28;20256;-76
2021/11/15 00:23:49;;;;;;;6.53;4.60;;;10.00;99.90;;;;;;4974302;28;20206;-76
2021/11/15 00:26:16;;;;;;;5.07;3.13;;;10.00;99.90;;;;;;4973628;28;20284;-74
2021/11/15 00:28:43;;;;;;;7.57;5.50;;;10.00;99.90;;;;;;4974366;28;20210;-78
2021/11/15 00:31:10;;;;;;;7.10;5.53;;;10.00;99.90;;;;;;4973794;28;20209;-77
2021/11/15 00:33:37;;;;;;;8.80;5.40;;;10.00;99.90;;;;;;4974277;28;20261;-76
2021/11/15 00:36:06;;;;;;;7.07;4.37;;;10.00;99.90;;;;;;4974494;28;20205;-75
2021/11/15 00:38:33;;;;;;;7.50;5.17;;;10.00;99.90;;;;;;4974355;28;20286;-74
2021/11/15 00:41:00;;;;;;;8.33;5.23;;;10.00;99.90;;;;;;4973904;28;20205;-75
2021/11/15 00:43:27;;;;;;;10.23;5.43;;;9.90;99.90;;;;;;4987264;28;20214;-75
2021/11/15 00:45:54;;;;;;;8.27;5.70;;;10.00;99.90;;;;;;4974164;28;20241;-75
2021/11/15 00:48:22;;;;;;;6.23;4.93;;;10.00;99.90;;;;;;4973438;28;20213;-75
2021/11/15 00:50:50;;;;;;;7.53;4.53;;;10.00;99.90;;;;;;4973582;28;20602;-75
2021/11/15 00:53:18;;;;;;;9.90;5.03;;;10.00;99.90;;;;;;4973652;28;20261;-74
2021/11/15 00:55:45;;;;;;;6.10;4.17;;;10.00;99.90;;;;;;4973718;28;20213;-75
2021/11/15 00:58:12;;;;;;;9.07;6.07;;;10.00;99.90;;;;;;4973468;28;20209;-75
2021/11/15 01:00:41;;;;;;;8.00;4.77;;;10.00;99.90;;;;;;4973779;28;20217;-75
2021/11/15 01:03:09;;;;;;;5.63;3.77;;;9.90;99.90;;;;;;4973575;28;20337;-74
2021/11/15 01:05:38;;;;;;;9.20;5.00;;;9.90;99.90;;;;;;4973464;28;20233;-75
2021/11/15 01:08:07;;;;;;;3.83;3.43;;;9.90;99.90;;;;;;4973733;28;20261;-75
2021/11/15 01:10:36;;;;;;;6.27;4.20;;;9.90;99.90;;;;;;4973888;28;20678;-75
2021/11/15 01:13:04;;;;;;;4.30;3.90;;;9.90;99.90;;;;;;4973475;28;20206;-75
2021/11/15 01:15:31;;;;;;;5.13;3.47;;;9.90;99.90;;;;;;4973099;28;20213;-75
2021/11/15 01:17:59;;;;;;;4.13;3.50;;;9.90;99.90;;;;;;4973274;28;20213;-74
2021/11/15 01:20:29;;;;;;;3.87;2.87;;;9.90;99.90;;;;;;4972807;28;20674;-74
2021/11/15 01:22:57;;;;;;;3.53;2.77;;;9.90;99.90;;;;;;4971951;28;20225;-75
2021/11/15 01:25:25;;;;;;;7.00;4.83;;;9.90;99.90;;;;;;4973210;28;20209;-74
2021/11/15 01:27:53;;;;;;;2.70;2.47;;;9.80;99.90;;;;;;4973109;28;20681;-75
2021/11/15 01:30:22;;;;;;;2.87;2.67;;;9.80;99.90;;;;;;4972774;28;20744;-75
2021/11/15 01:32:49;;;;;;;3.63;3.00;;;9.80;99.90;;;;;;4973521;28;20641;-74
2021/11/15 01:35:17;;;;;;;4.53;2.97;;;9.80;99.90;;;;;;4972047;28;20209;-74
2021/11/15 01:37:44;;;;;;;4.93;3.83;;;9.90;99.90;;;;;;4973203;28;20673;-74
2021/11/15 01:40:15;;;;;;;3.20;2.43;;;9.80;99.90;;;;;;4972637;28;20260;-74
2021/11/15 01:42:42;;;;;;;4.90;2.80;;;9.80;99.90;;;;;;4973199;28;20206;-75
2021/11/15 01:45:13;;;;;;;3.20;2.70;;;9.80;99.90;;;;;;4972388;28;21024;-76
2021/11/15 01:47:40;;;;;;;3.77;3.37;;;9.80;99.90;;;;;;4972593;28;20240;-75
2021/11/15 01:50:11;;;;;;;4.43;3.13;;;9.80;99.90;;;;;;4972499;28;20210;-75
2021/11/15 01:52:38;;;;;;;2.57;2.37;;;9.80;99.90;;;;;;4972904;28;20216;-75
2021/11/15 01:55:07;;;;;;;2.57;2.37;;;9.80;99.90;;;;;;4973004;28;20681;-74
2021/11/15 01:57:35;;;;;;;2.67;2.23;;;9.80;99.90;;;;;;4972700;28;20644;-73
2021/11/15 02:00:02;;;;;;;3.10;2.60;;;9.90;99.90;;;;;;4972930;28;20213;-74
2021/11/15 02:02:30;;;;;;;5.43;2.87;;;9.90;99.90;;;;;;4971756;28;20265;-74
2021/11/15 02:04:58;;;;;;;2.90;2.63;;;9.90;99.90;;;;;;4972497;28;20673;-74
2021/11/15 02:07:26;;;;;;;3.03;2.73;;;9.90;99.90;;;;;;4972087;28;20237;-74
2021/11/15 02:09:53;;;;;;;5.03;3.43;;;9.90;99.90;;;;;;4972766;28;20209;-72
2021/11/15 02:12:20;;;;;;;4.23;2.87;;;10.00;99.90;;;;;;4971996;28;20571;-74
2021/11/15 02:14:47;;;;;;;3.50;2.37;;;10.00;99.90;;;;;;4972228;28;20212;-71
2021/11/15 02:17:14;;;;;;;4.83;3.20;;;9.90;99.90;;;;;;4971688;28;20665;-72
2021/11/15 02:19:44;;;;;;;3.27;2.90;;;9.80;99.90;;;;;;4972315;28;20214;-73
2021/11/15 02:22:12;;;;;;;3.43;3.13;;;9.80;99.90;;;;;;4972106;28;20205;-72
2021/11/15 02:24:39;;;;;;;2.93;2.23;;;9.80;99.90;;;;;;4971827;28;20213;-72
2021/11/15 02:27:07;;;;;;;3.30;2.53;;;9.80;99.90;;;;;;4972272;28;20229;-72
2021/11/15 02:29:34;;;;;;;2.63;2.23;;;9.80;99.90;;;;;;4972039;28;20214;-72
2021/11/15 02:32:02;;;;;;;3.57;2.30;;;9.80;99.90;;;;;;4972454;28;20245;-72
2021/11/15 02:34:29;;;;;;;3.73;2.63;;;9.80;99.90;;;;;;4971331;28;20214;-73
2021/11/15 02:36:56;;;;;;;3.10;2.80;;;9.70;99.90;;;;;;4971975;28;20603;-74
2021/11/15 02:39:25;;;;;;;2.47;2.27;;;9.70;99.90;;;;;;4971697;28;20288;-71
2021/11/15 02:41:52;;;;;;;4.03;2.40;;;9.70;99.90;;;;;;4971798;28;20276;-70
2021/11/15 02:44:19;;;;;;;4.10;2.20;;;9.70;99.90;;;;;;4971558;28;20736;-71
2021/11/15 02:46:46;;;;;;;3.80;2.90;;;9.70;99.90;;;;;;4971454;28;20221;-71
2021/11/15 02:49:13;;;;;;;3.23;2.93;;;9.70;99.90;;;;;;4971408;28;20210;-70
2021/11/15 02:51:40;;;;;;;2.57;2.10;;;9.70;99.90;;;;;;4971739;28;20213;-70
2021/11/15 02:54:07;;;;;;;3.60;2.87;;;9.70;99.90;;;;;;4971680;28;20645;-71
2021/11/15 02:56:36;;;;;;;2.97;2.63;;;9.80;99.90;;;;;;4972121;28;20268;-71
2021/11/15 02:59:03;;;;;;;4.37;3.17;;;9.80;99.90;;;;;;4971991;28;20272;-71
2021/11/15 03:01:31;;;;;;;2.80;2.33;;;9.80;99.90;;;;;;4971624;28;20205;-71
2021/11/15 03:03:58;;;;;;;4.10;3.23;;;9.80;99.90;;;;;;4971957;28;20293;-71
2021/11/15 03:06:25;;;;;;;2.83;2.60;;;9.80;99.90;;;;;;4971362;28;20381;-71
2021/11/15 03:08:52;;;;;;;3.40;2.63;;;9.80;99.90;;;;;;4971868;28;20209;-71
2021/11/15 03:11:19;;;;;;;2.80;2.60;;;9.90;99.90;;;;;;4970985;28;20253;-71
2021/11/15 03:13:48;;;;;;;3.80;2.87;;;9.80;99.90;;;;;;4971965;28;20323;-71
2021/11/15 03:16:16;;;;;;;4.17;3.27;;;9.80;99.90;;;;;;4971022;28;20224;-71
2021/11/15 03:18:45;;;;;;;3.90;2.77;;;9.70;99.90;;;;;;4971494;28;20209;-71
2021/11/15 03:21:14;;;;;;;3.37;2.30;;;9.70;99.90;;;;;;4971140;28;20245;-71
2021/11/15 03:23:43;;;;;;;3.07;2.77;;;9.80;99.90;;;;;;4971598;28;20264;-72
2021/11/15 03:26:11;;;;;;;4.83;3.60;;;9.70;99.90;;;;;;4970795;28;20217;-72
2021/11/15 03:28:40;;;;;;;3.23;2.87;;;9.80;99.90;;;;;;4971405;28;20256;-72
2021/11/15 03:31:11;;;;;;;3.50;3.20;;;9.70;99.90;;;;;;4971267;28;20209;-72
2021/11/15 03:33:39;;;;;;;4.67;3.23;;;9.70;99.90;;;;;;4971594;28;20210;-72
2021/11/15 03:36:07;;;;;;;3.47;3.13;;;9.70;99.90;;;;;;4971327;28;20216;-72
2021/11/15 03:38:35;;;;;;;4.07;3.20;;;9.80;99.90;;;;;;4971396;28;20209;-72
2021/11/15 03:41:02;;;;;;;4.40;2.83;;;9.80;99.90;;;;;;4971649;28;20213;-73
2021/11/15 03:43:29;;;;;;;3.60;3.17;;;9.80;99.90;;;;;;4973843;28;20263;-73
2021/11/15 03:45:57;;;;;;;4.07;2.53;;;9.70;99.90;;;;;;4991723;28;20275;-73
2021/11/15 03:48:25;;;;;;;3.97;2.50;;;9.70;99.90;;;;;;4973294;28;20705;-73
2021/11/15 03:50:55;;;;;;;2.63;2.33;;;9.80;99.90;;;;;;4974760;28;20213;-73
2021/11/15 03:53:25;;;;;;;3.17;2.87;;;9.80;99.90;;;;;;4988269;28;20365;-73
2021/11/15 03:55:53;;;;;;;3.30;2.63;;;9.80;99.90;;;;;;4974769;28;20742;-74
2021/11/15 03:58:20;;;;;;;3.57;2.50;;;9.80;99.90;;;;;;4974246;28;20276;-74
2021/11/15 04:00:47;;;;;;;2.50;2.20;;;9.70;99.90;;;;;;4974529;28;20213;-74
2021/11/15 04:03:20;;;;;;;2.30;2.10;;;9.80;99.90;;;;;;4974393;28;20213;-70
2021/11/15 04:05:56;;;;;;;3.27;2.70;;;9.80;99.90;;;;;;4974277;28;20240;-69
2021/11/15 04:08:23;;;;;;;3.93;3.00;;;9.70;99.90;;;;;;4974204;28;20279;-70
2021/11/15 04:10:51;;;;;;;3.37;2.30;;;9.70;99.90;;;;;;4974615;28;20210;-69
2021/11/15 04:13:20;;;;;;;2.63;2.20;;;9.80;99.90;;;;;;4974359;28;20202;-73
2021/11/15 04:15:49;;;;;;;3.00;2.30;;;9.80;99.90;;;;;;4974271;28;20210;-72
2021/11/15 04:18:21;;;;;;;3.07;2.40;;;9.80;99.90;;;;;;4974491;28;20268;-72
2021/11/15 04:20:50;;;;;;;3.03;2.07;;;9.80;99.90;;;;;;4974628;28;20264;-71
2021/11/15 04:23:17;;;;;;;4.43;2.87;;;9.70;99.90;;;;;;4974352;28;20276;-72
2021/11/15 04:25:44;;;;;;;3.37;2.40;;;9.70;99.90;;;;;;4974397;28;20292;-72
2021/11/15 04:28:12;;;;;;;2.50;2.30;;;9.70;99.90;;;;;;4973611;28;20287;-72
2021/11/15 04:30:39;;;;;;;3.97;2.53;;;9.70;99.90;;;;;;4974295;28;20613;-72
2021/11/15 04:33:07;;;;;;;5.00;3.07;;;9.70;99.90;;;;;;4974169;28;21888;-73
2021/11/15 04:35:34;;;;;;;2.67;2.47;;;9.70;99.90;;;;;;4974554;28;20261;-72
2021/11/15 04:38:04;;;;;;;3.47;2.60;;;9.70;99.90;;;;;;4974428;28;20255;-73
2021/11/15 04:40:32;;;;;;;2.37;2.10;;;9.70;99.90;;;;;;4974002;28;20249;-72
2021/11/15 04:42:59;;;;;;;2.93;2.63;;;9.60;99.90;;;;;;4974255;28;20221;-72
2021/11/15 04:45:27;;;;;;;2.33;1.97;;;9.60;99.90;;;;;;4974098;28;20295;-72
2021/11/15 04:47:54;;;;;;;2.83;2.10;;;9.60;99.90;;;;;;4956617;28;20328;-74
2021/11/15 04:50:21;;;;;;;2.10;1.60;;;9.60;99.90;;;;;;4973538;28;20590;-74
2021/11/15 04:52:49;;;;;;;2.17;1.97;;;9.60;99.90;;;;;;4974111;28;20210;-74
2021/11/15 04:55:19;;;;;;;3.13;2.17;;;9.50;99.90;;;;;;4973496;28;20208;-73
2021/11/15 04:57:47;;;;;;;3.07;2.67;;;9.50;99.90;;;;;;4973791;28;20288;-73
2021/11/15 05:00:18;;;;;;;2.00;1.80;;;9.50;99.90;;;;;;4973293;28;20248;-73
2021/11/15 05:02:45;;;;;;;3.70;2.37;;;9.50;99.90;;;;;;4973775;28;20206;-71
2021/11/15 05:05:12;;;;;;;4.23;2.17;;;9.50;99.90;;;;;;4973500;28;20213;-72
2021/11/15 05:07:40;;;;;;;2.87;2.40;;;9.50;99.90;;;;;;4973552;28;20435;-72
2021/11/15 05:10:08;;;;;;;3.47;2.53;;;9.50;99.90;;;;;;4973604;28;20618;-72
2021/11/15 05:12:38;;;;;;;3.00;2.00;;;9.60;99.90;;;;;;4972286;28;20206;-72
2021/11/15 05:15:10;;;;;;;3.23;2.60;;;9.70;99.90;;;;;;4973609;28;20210;-72
2021/11/15 05:17:37;;;;;;;2.60;2.40;;;9.60;99.90;;;;;;4973069;28;20681;-72
2021/11/15 05:20:05;;;;;;;4.40;2.20;;;9.60;99.90;;;;;;4973274;28;20209;-72
2021/11/15 05:22:32;;;;;;;3.57;2.50;;;9.50;99.90;;;;;;4973031;28;20206;-71
2021/11/15 05:24:59;;;;;;;4.57;2.63;;;9.40;99.90;;;;;;4972707;28;20220;-72
2021/11/15 05:27:27;;;;;;;2.17;1.97;;;9.30;99.90;;;;;;4972443;28;20295;-72
2021/11/15 05:29:57;;;;;;;2.67;2.20;;;9.40;99.90;;;;;;4973202;28;20213;-72
2021/11/15 05:32:24;;;;;;;3.20;2.27;;;9.40;99.90;;;;;;4972817;28;20260;-72
2021/11/15 05:34:51;;;;;;;2.67;2.47;;;9.40;99.90;;;;;;4972812;28;20267;-72
2021/11/15 05:37:18;;;;;;;2.97;2.70;;;9.40;99.90;;;;;;4972507;28;20304;-72
2021/11/15 05:39:45;;;;;;;3.73;2.63;;;9.40;99.90;;;;;;4972361;28;20258;-72
2021/11/15 05:42:12;;;;;;;2.93;2.20;;;9.50;99.90;;;;;;4972742;28;20264;-72
2021/11/15 05:44:39;;;;;;;4.40;2.40;;;9.50;99.90;;;;;;4973115;28;20705;-73
2021/11/15 05:47:08;;;;;;;3.07;2.03;;;9.50;99.90;;;;;;4972707;28;20700;-73
2021/11/15 05:49:36;;;;;;;3.50;2.67;;;9.50;99.90;;;;;;4972950;28;20252;-72
2021/11/15 05:52:03;;;;;;;4.60;2.63;;;9.60;99.90;;;;;;4972568;28;20209;-73
2021/11/15 05:54:31;;;;;;;4.83;2.47;;;9.60;99.90;;;;;;4971944;28;20210;-72
2021/11/15 05:56:58;;;;;;;3.60;2.37;;;9.60;99.90;;;;;;4972177;28;20751;-72
2021/11/15 05:59:27;;;;;;;3.70;2.30;;;9.60;99.90;;;;;;4971960;28;20712;-74
2021/11/15 06:01:54;;;;;;;5.10;3.20;;;9.60;99.90;;;;;;4972326;28;20665;-73
2021/11/15 06:04:23;;;;;;;3.80;3.07;;;9.50;99.90;;;;;;4972254;28;20361;-73
2021/11/15 06:06:51;;;;;;;3.73;2.63;;;9.50;99.90;;;;;;4971393;28;20288;-74
2021/11/15 06:09:18;;;;;;;3.63;2.70;;;9.50;99.90;;;;;;4970801;28;20229;-74
2021/11/15 06:11:45;;;;;;;3.07;2.37;;;9.70;99.90;;;;;;4972510;28;20272;-74
2021/11/15 06:14:12;;;;;;;8.03;2.60;;;9.60;99.90;;;;;;4971789;28;20703;-74
2021/11/15 06:16:39;;;;;;;3.80;2.73;;;9.60;99.90;;;;;;4972508;28;20209;-74
2021/11/15 06:19:06;;;;;;;3.50;3.20;;;9.50;99.90;;;;;;4972146;28;20252;-74
2021/11/15 06:21:35;;;;;;;4.90;3.07;;;9.60;99.90;;;;;;4972666;28;20205;-74
2021/11/15 06:24:02;;;;;;;3.23;2.70;;;9.60;99.90;;;;;;4971491;28;20209;-75
2021/11/15 06:26:29;;;;;;;3.90;3.37;;;9.50;99.90;;;;;;4971573;28;20210;-76
2021/11/15 06:28:56;;;;;;;4.37;3.27;;;9.50;99.90;;;;;;4971302;28;20812;-76
2021/11/15 06:31:24;;;;;;;7.53;3.63;;;9.60;99.90;;;;;;4971799;28;20201;-75
2021/11/15 06:33:52;;;;;;;2.87;2.30;;;9.60;99.90;;;;;;4972174;28;20217;-75
2021/11/15 06:36:22;;;;;;;4.87;2.77;;;9.60;99.90;;;;;;4971889;28;20228;-75
2021/11/15 06:38:52;;;;;;;3.90;3.27;;;9.60;99.90;;;;;;4968498;28;20665;-74
2021/11/15 06:41:19;;;;;;;4.53;3.43;;;9.60;99.90;;;;;;4968666;28;20817;-74
2021/11/15 06:43:47;;;;;;;3.70;3.03;;;9.60;99.90;;;;;;4972041;28;20209;-75
2021/11/15 06:46:15;;;;;;;7.10;3.60;;;9.60;99.90;;;;;;4971137;28;20221;-74
2021/11/15 06:48:42;;;;;;;9.23;3.77;;;9.70;99.90;;;;;;4971549;28;20245;-74
2021/11/15 06:51:10;;;;;;;3.37;2.93;;;9.70;99.90;;;;;;4971605;28;20256;-74
2021/11/15 06:53:37;;;;;;;5.33;3.90;;;9.60;99.90;;;;;;4971837;28;20256;-74
2021/11/15 06:56:07;;;;;;;4.47;4.07;;;9.60;99.90;;;;;;4971762;28;20673;-74
2021/11/15 06:58:35;;;;;;;5.20;3.60;;;9.60;99.90;;;;;;4971633;28;20221;-74
2021/11/15 07:01:04;;;;;;;4.90;4.17;;;9.60;99.90;;;;;;4971964;28;20264;-73
2021/11/15 07:03:32;;;;;;;4.20;3.77;;;9.70;99.90;;;;;;4971456;28;20304;-73
2021/11/15 07:05:59;;;;;;;3.83;3.40;;;9.70;99.90;;;;;;4971838;28;20213;-74
2021/11/15 07:08:26;;;;;;;4.40;3.40;;;9.80;99.90;;;;;;4971108;28;20593;-74
2021/11/15 07:10:54;;;;;;;5.27;4.07;;;9.70;99.90;;;;;;4971565;28;20209;-74
2021/11/15 07:13:23;;;;;;;4.97;4.43;;;9.70;99.90;;;;;;4971465;28;20213;-74
2021/11/15 07:15:50;;;;;;;5.07;4.67;;;9.70;99.90;;;;;;4968914;28;20632;-74
2021/11/15 07:18:17;;;;;;;4.80;4.27;;;9.70;99.90;;;;;;4970408;28;20257;-74
2021/11/15 07:20:45;;;;;;;4.10;3.70;;;9.70;99.90;;;;;;4971874;28;20288;-74
2021/11/15 07:23:12;;;;;;;4.67;3.97;;;9.70;99.90;;;;;;4974919;28;20276;-74
2021/11/15 07:25:39;;;;;;;5.20;3.53;;;9.80;99.90;;;;;;4973460;28;20272;-74
2021/11/15 07:28:07;;;;;;;7.43;4.77;;;9.70;99.90;;;;;;4975516;28;20233;-74
2021/11/15 07:30:35;;;;;;;7.60;4.33;;;9.70;99.90;;;;;;4984891;28;20292;-73
2021/11/15 07:33:02;;;;;;;5.80;4.37;;;9.80;99.90;;;;;;4975441;28;20264;-73
2021/11/15 07:35:30;;;;;;;3.67;3.37;;;9.90;99.90;;;;;;4974902;28;20221;-75
2021/11/15 07:37:57;;;;;;;6.57;3.93;;;9.90;99.90;;;;;;4974769;28;20684;-73
2021/11/15 07:40:24;;;;;;;6.20;3.50;;;10.00;99.90;;;;;;4973545;28;20735;-78
2021/11/15 07:42:51;;;;;;;5.57;3.70;;;9.90;99.90;;;;;;4973903;28;20232;-81
2021/11/15 07:45:18;;;;;;;6.07;4.07;;;10.00;99.90;;;;;;4974579;28;20202;-76
2021/11/15 07:47:47;;;;;;;4.43;3.37;;;10.00;99.90;;;;;;4974691;28;20779;-76
2021/11/15 07:50:15;;;;;;;5.03;2.87;;;10.10;99.90;;;;;;4973110;28;20210;-76
2021/11/15 07:52:42;;;;;;;3.93;3.00;;;10.00;99.90;;;;;;4974667;28;20206;-75
2021/11/15 07:55:13;;;;;;;4.67;4.00;;;10.10;99.90;;;;;;4973316;28;20665;-75
2021/11/15 07:57:41;;;;;;;5.33;4.03;;;10.10;99.90;;;;;;4975163;28;20213;-74
2021/11/15 08:00:11;;;;;;;4.43;3.77;;;10.10;99.90;;;;;;4968451;28;20673;-75
2021/11/15 08:02:39;;;;;;;3.53;3.23;;;10.10;99.90;;;;;;4974768;28;20260;-75
2021/11/15 08:05:09;;;;;;;5.87;4.10;;;10.20;99.90;;;;;;4974408;28;20584;-74
2021/11/15 08:07:36;;;;;;;4.53;3.90;;;10.20;99.90;;;;;;4974691;28;20209;-77
2021/11/15 08:10:03;;;;;;;4.70;3.33;;;10.20;99.90;;;;;;4973833;28;20562;-74
2021/11/15 08:12:35;;;;;;;4.40;3.53;;;10.30;99.90;;;;;;4973939;28;20297;-75
2021/11/15 08:15:06;;;;;;;4.37;3.53;;;10.30;99.90;;;;;;4974865;28;20205;-76
2021/11/15 08:17:33;;;;;;;7.80;3.83;;;10.40;99.90;;;;;;4974257;28;20670;-75
2021/11/15 08:20:00;;;;;;;5.40;3.93;;;10.50;99.90;;;;;;4974138;28;20210;-75
2021/11/15 08:22:29;;;;;;;5.70;4.50;;;10.50;99.90;;;;;;4973989;28;20304;-76
2021/11/15 08:25:34;;;;;;;5.30;4.07;;;10.60;99.90;;;;;;4974269;28;20218;-75
2021/11/15 08:28:01;;;;;;;4.60;3.77;;;10.60;99.90;;;;;;4954167;28;20328;-75
2021/11/15 08:30:28;;;;;;;6.03;4.17;;;10.50;99.90;;;;;;4974060;28;20681;-76
2021/11/15 08:32:56;;;;;;;6.97;4.27;;;10.60;99.90;;;;;;4973765;28;20292;-75
2021/11/15 08:35:25;;;;;;;8.05;4.55;;;10.60;99.90;;;;;;4973406;28;20214;-76
2021/11/15 08:38:24;;;;;;;7.17;5.17;;;10.70;99.90;;;;;;4974269;28;20269;-76
2021/11/15 08:40:52;;;;;;;7.10;5.30;;;10.70;99.90;;;;;;4974534;28;20214;-76
2021/11/15 08:43:21;;;;;;;5.37;4.20;;;10.80;99.90;;;;;;4973818;28;20205;-75
2021/11/15 08:45:48;;;;;;;8.30;5.13;;;10.80;99.90;;;;;;4973751;28;20272;-76
2021/11/15 08:48:16;;;;;;;6.77;4.67;;;10.70;99.90;;;;;;4972865;28;20721;-76
2021/11/15 08:50:43;;;;;;;5.10;3.70;;;10.70;99.90;;;;;;4973965;28;20303;-76
2021/11/15 08:53:11;;;;;;;6.30;5.00;;;10.70;99.90;;;;;;4973616;28;20209;-78
2021/11/15 08:55:40;;;;;;;7.20;5.37;;;10.60;99.90;;;;;;4974127;28;20244;-79
2021/11/15 08:58:07;;;;;;;7.97;6.40;;;10.60;99.90;;;;;;4973217;28;20202;-77
2021/11/15 09:00:37;;;;;;;7.17;5.23;;;10.70;99.90;;;;;;4973437;28;20626;-77
2021/11/15 09:03:04;;;;;;;5.73;4.30;;;10.70;99.90;;;;;;4973539;28;20209;-76
2021/11/15 09:05:32;;;;;;;8.63;5.50;;;10.60;99.90;;;;;;4973216;28;20206;-76
2021/11/15 09:07:59;;;;;;;4.83;3.60;;;10.60;99.90;;;;;;4973160;28;20213;-76
2021/11/15 09:10:28;;;;;;;6.60;4.90;;;10.60;99.90;;;;;;4971905;28;20234;-77
2021/11/15 09:12:55;;;;;;;6.53;4.10;;;10.60;99.90;;;;;;4970186;28;20693;-76
2021/11/15 09:15:22;;;;;;;8.37;4.77;;;10.60;99.90;;;;;;4966911;28;20216;-75
2021/11/15 09:17:49;;;;;;;7.87;4.43;;;10.70;99.90;;;;;;4972806;28;20268;-75
2021/11/15 09:20:16;;;;;;;5.37;4.40;;;10.70;99.90;;;;;;4972313;28;21184;-74
2021/11/15 09:22:44;;;;;;;7.43;3.77;;;10.60;99.90;;;;;;4972180;28;20235;-75
2021/11/15 09:25:12;;;;;;;4.03;3.63;;;10.70;99.90;;;;;;4972408;28;20210;-75
2021/11/15 09:27:41;;;;;;;4.50;3.60;;;10.70;99.90;;;;;;4973060;28;20614;-75
2021/11/15 09:30:10;;;;;;;4.63;3.80;;;10.70;99.90;;;;;;4972740;28;20237;-73
2021/11/15 09:32:37;;;;;;;5.47;4.20;;;10.80;99.90;;;;;;4974130;28;20256;-76
2021/11/15 09:35:06;;;;;;;5.63;4.07;;;10.80;99.90;;;;;;4977798;28;20651;-76
2021/11/15 09:37:33;;;;;;;3.97;3.23;;;10.70;99.90;;;;;;4971231;28;20224;-75
2021/11/15 09:40:00;;;;;;;5.93;3.63;;;10.80;99.90;;;;;;4970853;28;20260;-76
2021/11/15 09:42:27;;;;;;;6.87;3.83;;;10.80;99.90;;;;;;4972195;28;20209;-76
2021/11/15 09:44:56;;;;;;;6.07;3.43;;;11.00;99.90;;;;;;4971641;28;20209;-76
2021/11/15 09:47:23;;;;;;;5.37;3.57;;;10.90;99.90;;;;;;4971945;28;20217;-77
2021/11/15 09:49:50;;;;;;;3.55;3.20;;;10.90;99.90;;;;;;4971937;28;20720;-76
2021/11/15 09:52:17;;;;;;;4.80;3.55;;;10.80;99.90;;;;;;4954944;28;20634;-76
2021/11/15 09:54:45;;;;;;;6.93;3.60;;;10.90;99.90;;;;;;4973161;28;20206;-78
2021/11/15 09:57:15;;;;;;;6.28;4.40;;;10.80;99.90;;;;;;4986042;28;20217;-77
2021/11/15 09:59:44;;;;;;;5.40;4.57;;;10.90;99.90;;;;;;4972246;28;20292;-77
2021/11/15 10:02:13;;;;;;;7.32;4.07;;;10.90;99.90;;;;;;4971384;28;20244;-77
2021/11/15 10:04:40;;;;;;;4.30;3.67;;;10.80;99.90;;;;;;4972876;28;20217;-77
2021/11/15 10:07:08;;;;;;;5.20;3.50;;;10.80;99.90;;;;;;4972576;28;20213;-76
2021/11/15 10:09:38;;;;;;;5.40;4.00;;;10.80;99.90;;;;;;4972903;28;20608;-77
2021/11/15 10:12:09;;;;;;;5.20;4.40;;;10.90;99.90;;;;;;4972585;28;20209;-76
2021/11/15 10:14:37;;;;;;;5.07;3.47;;;10.90;99.90;;;;;;4972715;28;20241;-77
2021/11/15 10:17:04;;;;;;;4.60;3.97;;;11.00;99.90;;;;;;4972763;28;20213;-76
2021/11/15 10:19:34;;;;;;;4.73;4.20;;;11.10;99.90;;;;;;4972294;28;20206;-77
2021/11/15 10:22:03;;;;;;;4.37;3.93;;;11.10;99.90;;;;;;4972801;28;20237;-77
2021/11/15 10:24:35;;;;;;;7.97;4.18;;;11.20;99.90;;;;;;4971669;28;20217;-77
2021/11/15 10:27:06;;;;;;;5.82;4.00;;;11.30;99.90;;;;;;4972699;28;20223;-77
2021/11/15 10:29:36;;;;;;;5.07;3.63;;;11.20;99.90;;;;;;4972329;28;20236;-77
2021/11/15 10:32:05;;;;;;;5.07;4.40;;;11.10;99.90;;;;;;4971848;28;20563;-77
2021/11/15 10:34:37;;;;;;;4.80;3.83;;;11.10;99.90;;;;;;4970871;28;20205;-77
2021/11/15 10:37:11;;;;;;;4.77;4.27;;;11.00;99.90;;;;;;4972500;28;20205;-77
2021/11/15 10:39:43;;;;;;;6.47;4.27;;;11.00;99.90;;;;;;4971754;28;20672;-77
2021/11/15 10:42:14;;;;;;;4.73;4.00;;;11.00;99.90;;;;;;4971623;28;20209;-77
2021/11/15 10:44:57;;;;;;;5.17;3.60;;;11.00;99.90;;;;;;4971751;28;20213;-76
2021/11/15 10:47:31;;;;;;;5.43;3.70;;;11.00;99.90;;;;;;4971563;28;20213;-77
2021/11/15 10:50:10;;;;;;;5.57;5.00;;;10.90;99.90;;;;;;4971883;28;20221;-77
2021/11/15 10:52:39;;;;;;;3.80;3.50;;;10.80;99.90;;;;;;4971953;28;20219;-77
2021/11/15 10:55:08;;;;;;;4.97;3.43;;;11.00;99.90;;;;;;4971863;28;20206;-78
2021/11/15 10:57:41;;;;;;;5.33;4.67;;;11.20;99.90;;;;;;4972306;28;20645;-78
2021/11/15 11:00:21;;;;;;;6.23;4.40;;;11.50;99.90;;;;;;4970334;28;20224;-77
2021/11/15 11:02:50;;;;;;;7.37;4.93;;;11.60;99.90;;;;;;4970029;28;20279;-76
2021/11/15 11:05:20;;;;;;;6.43;5.03;;;11.70;99.90;;;;;;4970602;28;20217;-76
2021/11/15 11:07:49;;;;;;;6.65;3.97;;;11.60;99.90;;;;;;4971215;28;20602;-75
2021/11/15 11:10:18;;;;;;;6.30;4.63;;;11.80;99.90;;;;;;4969748;28;20280;-76
2021/11/15 11:12:56;;;;;;;5.95;4.50;;;12.00;99.90;;;;;;4970551;28;20292;-75
2021/11/15 11:15:33;;;;;;;5.72;4.38;;;12.10;99.90;;;;;;4968386;28;20201;-74
2021/11/15 11:18:04;;;;;;;7.97;5.40;;;12.10;99.90;;;;;;4960296;28;20216;-75
2021/11/15 11:26:36;;;;;;;5.80;4.25;;;12.40;99.90;;;;;;4971679;28;20241;-75
2021/11/15 11:29:05;;;;;;;6.93;5.53;;;12.20;99.90;;;;;;4971116;28;20283;-73
2021/11/15 11:31:35;;;;;;;7.20;5.72;;;12.10;99.90;;;;;;4971666;28;20288;-73
2021/11/15 11:34:03;;;;;;;5.90;4.40;;;12.50;99.90;;;;;;4971139;28;20210;-74
2021/11/15 11:36:32;;;;;;;6.00;4.97;;;12.70;99.90;;;;;;4970572;28;20210;-74
2021/11/15 11:38:59;;;;;;;6.80;4.53;;;12.60;99.90;;;;;;4971364;28;20253;-75
2021/11/15 11:41:26;;;;;;;5.63;4.85;;;13.00;99.90;;;;;;4970607;28;20676;-74
2021/11/15 11:43:54;;;;;;;5.45;4.68;;;13.00;99.90;;;;;;4971196;28;20280;-74
2021/11/15 11:46:24;;;;;;;6.13;4.78;;;12.90;99.90;;;;;;4968895;28;20214;-74
2021/11/15 11:48:53;;;;;;;4.43;3.75;;;13.50;99.90;;;;;;4970146;28;20228;-73
2021/11/15 11:51:22;;;;;;;4.65;4.10;;;13.90;99.90;;;;;;4967198;28;20228;-73
2021/11/15 11:54:06;;;;;;;3.70;3.40;;;13.70;99.90;;;;;;4971398;28;20280;-74
2021/11/15 11:56:33;;;;;;;4.65;3.28;;;13.50;99.90;;;;;;4970964;28;20579;-73
2021/11/15 11:59:13;;;;;;;4.80;3.92;;;13.70;99.90;;;;;;4970147;28;20206;-71
2021/11/15 12:01:42;;;;;;;6.13;4.55;;;13.80;99.90;;;;;;4971409;28;20232;-73
2021/11/15 12:04:14;;;;;;;5.75;5.03;;;13.60;99.90;;;;;;4970370;28;20212;-73
2021/11/15 12:06:42;;;;;;;4.85;3.72;;;13.40;99.90;;;;;;4969214;28;20217;-73
2021/11/15 12:09:12;;;;;;;6.00;4.00;;;13.20;99.90;;;;;;4973906;28;20229;-74
2021/11/15 12:11:43;;;;;;;4.88;3.63;;;13.20;99.90;;;;;;4974531;28;20205;-75
2021/11/15 12:14:13;;;;;;;5.47;3.83;;;13.20;99.90;;;;;;4973029;28;20699;-75
2021/11/15 12:17:05;;;;;;;8.02;3.67;;;13.70;99.90;;;;;;4973934;28;20221;-73
2021/11/15 12:20:14;;;;;;;5.32;3.70;;;13.70;99.90;;;;;;4972808;28;20267;-73
2021/11/15 12:22:54;;;;;;;4.43;4.03;;;13.40;99.90;;;;;;4973060;28;20623;-71
2021/11/15 12:25:26;;;;;;;6.68;4.45;;;13.10;99.90;;;;;;4973258;28;20639;-71
2021/11/15 12:27:55;;;;;;;5.57;4.50;;;13.30;99.90;;;;;;4972287;28;20682;-72
2021/11/15 12:30:26;;;;;;;4.03;3.50;;;13.20;99.90;;;;;;4973491;28;20292;-73
2021/11/15 12:33:24;;;;;;;4.32;3.60;;;13.10;99.90;;;;;;4974012;28;20205;-77
2021/11/15 12:35:58;;;;;;;6.50;4.40;;;13.50;99.90;;;;;;4973209;28;20213;-76
2021/11/15 12:38:51;;;;;;;6.20;4.35;;;13.40;99.90;;;;;;4973936;28;20257;-76
2021/11/15 12:41:39;;;;;;;7.15;4.25;;;13.10;99.90;;;;;;4968440;28;20691;-77
2021/11/15 12:44:35;;;;;;;4.28;3.75;;;12.70;99.90;;;;;;4972241;28;20237;-75
2021/11/15 12:47:12;;;;;;;5.55;3.88;;;12.50;99.90;;;;;;4970963;28;20222;-78
2021/11/15 12:49:42;;;;;;;5.82;4.60;;;12.40;99.90;;;;;;4973770;28;20732;-76
2021/11/15 12:52:27;;;;;;;6.07;4.32;;;12.10;99.90;;;;;;4973691;28;20276;-74
2021/11/15 12:54:58;;;;;;;5.07;4.03;;;12.10;99.90;;;;;;4973103;28;20205;-75
2021/11/15 12:57:36;;;;;;;4.13;3.53;;;12.20;99.90;;;;;;4973254;28;20697;-77
2021/11/15 13:00:08;;;;;;;5.78;4.20;;;12.30;99.90;;;;;;4973635;28;20610;-75
2021/11/15 13:02:35;;;;;;;5.85;4.35;;;12.30;99.90;;;;;;4962076;28;20217;-78
2021/11/15 13:05:04;;;;;;;6.07;3.92;;;12.30;99.90;;;;;;4973851;28;20674;-76
2021/11/15 13:07:32;;;;;;;6.60;3.90;;;12.40;99.90;;;;;;4973368;28;20206;-75
2021/11/15 13:09:59;;;;;;;4.05;3.25;;;12.50;99.90;;;;;;4972840;28;20241;-75